Interlink Veracity — V7GD4 — position and weather

sailwx.info

Track history (hours):
 
Tides and Currents Weather Stations Pressure Air Temp Water Temp Dewpoint Dewpoint Depression Visibility Wind Speed Wind Dir Waves Ship Positions

Interlink Veracity

Last reported at 2017-Sep-21 19:47 UTC. Time now 2017-Sep-21 22:56 UTC.
Position S 29°15' E 032°05'.

Length 179 m; draft 8.2 m.

Type: Cargo ship. MMSI: 538005694.

Date/timePositionNaut miles runAvg speedWind from/ knotsBaromVisibWave heightAir tempDewpointWater temp
2017-Sep-21 19:47S 29°15' E 032°05'2 7.5
2017-Sep-21 19:29S 29°16' E 032°03'4 7.4
2017-Sep-21 19:00S 29°19' E 032°00'8 7.0
2017-Sep-21 17:49S 29°24' E 031°53'15 8.3
2017-Sep-21 15:57S 29°33' E 031°39'4 9.0
2017-Sep-21 15:30S 29°36' E 031°35'5 9.4
2017-Sep-21 15:00S 29°39' E 031°31'5 9.5
2017-Sep-21 14:30S 29°42' E 031°27'5 9.6
2017-Sep-21 14:00S 29°46' E 031°23'5 9.8
2017-Sep-21 13:30S 29°47' E 031°18'510.4
2017-Sep-21 13:00S 29°49' E 031°13'510.9
2017-Sep-21 12:30S 29°51' E 031°06'4 7.9
2017-Sep-21 12:00S 29°53' E 031°02'2 3.4
2017-Sep-21 11:30S 29°52' E 031°01'0 0.1
2017-Sep-21 11:00S 29°52' E 031°01'0 0.0
2017-Sep-21 10:27S 29°52' E 031°01'0 0.0
2017-Sep-21 10:00S 29°52' E 031°01'0 0.0
2017-Sep-21 09:30S 29°52' E 031°01'0 0.0
2017-Sep-21 09:00S 29°52' E 031°01'0 0.0
2017-Sep-21 08:30S 29°52' E 031°01'0 0.0
2017-Sep-21 08:00S 29°52' E 031°01'0 0.0
2017-Sep-21 07:30S 29°52' E 031°01'0 0.0
2017-Sep-21 07:00S 29°52' E 031°01'0 0.0
2017-Sep-21 06:30S 29°52' E 031°01'0 0.0
2017-Sep-21 06:00S 29°52' E 031°01'0 0.0
2017-Sep-21 05:30S 29°52' E 031°01'0 0.0
2017-Sep-21 05:00S 29°52' E 031°01'0 0.0
2017-Sep-21 04:30S 29°52' E 031°01'0 0.0
2017-Sep-21 04:00S 29°52' E 031°01'0 0.0
2017-Sep-21 03:30S 29°52' E 031°01'0 0.0
2017-Sep-21 03:00S 29°52' E 031°01'0 0.0
2017-Sep-21 02:30S 29°52' E 031°01'0 0.0
2017-Sep-21 02:00S 29°52' E 031°01'0 0.0
2017-Sep-21 01:24S 29°52' E 031°01'0 0.0
2017-Sep-21 01:00S 29°52' E 031°01'0 0.0
2017-Sep-21 00:30S 29°52' E 031°01'0 0.0
2017-Sep-21 00:00S 29°52' E 031°01'0 0.0
2017-Sep-20 23:30S 29°52' E 031°01'0 0.0
2017-Sep-20 23:00S 29°52' E 031°01'0 0.0
2017-Sep-20 22:30S 29°52' E 031°01'0 0.0
2017-Sep-20 22:00S 29°52' E 031°01'0 0.0
2017-Sep-20 21:30S 29°52' E 031°01'0 0.0
2017-Sep-20 21:00S 29°52' E 031°01'0 0.0
2017-Sep-20 20:30S 29°52' E 031°01'0 0.0
2017-Sep-20 20:00S 29°52' E 031°01'0 0.0
2017-Sep-20 19:30S 29°52' E 031°01'0 0.0
2017-Sep-20 19:00S 29°52' E 031°01'0 0.0
2017-Sep-20 18:30S 29°52' E 031°01'0 0.0
2017-Sep-20 18:00S 29°52' E 031°01'0 0.0
2017-Sep-20 17:30S 29°52' E 031°01'0 0.0
2017-Sep-20 17:00S 29°52' E 031°01'0 0.0
2017-Sep-20 16:30S 29°52' E 031°01'0 0.0
2017-Sep-20 16:00S 29°52' E 031°01'0 0.0
2017-Sep-20 15:30S 29°52' E 031°01'0 0.0
2017-Sep-20 15:00S 29°52' E 031°01'0 0.0
2017-Sep-20 14:00S 29°52' E 031°01'0 0.0
2017-Sep-20 13:30S 29°52' E 031°01'0 0.0
2017-Sep-20 13:00S 29°52' E 031°01'0 0.0
2017-Sep-20 12:30S 29°52' E 031°01'0 0.0
2017-Sep-20 12:00S 29°52' E 031°01'0 0.0
2017-Sep-20 11:30S 29°52' E 031°01'0 0.0
2017-Sep-20 11:00S 29°52' E 031°01'0 0.0
2017-Sep-20 10:30S 29°52' E 031°01'0 0.0
2017-Sep-20 10:00S 29°52' E 031°01'0 0.0
2017-Sep-20 09:30S 29°52' E 031°01'0 0.0
2017-Sep-20 09:00S 29°52' E 031°01'0 0.0
2017-Sep-20 08:30S 29°52' E 031°01'0 0.0
2017-Sep-20 08:00S 29°52' E 031°01'0 0.0
2017-Sep-20 07:30S 29°52' E 031°01'0 0.0
2017-Sep-20 07:00S 29°52' E 031°01'0 0.0
2017-Sep-20 06:30S 29°52' E 031°01'0 0.0
2017-Sep-20 06:00S 29°52' E 031°01'0 0.0
2017-Sep-20 05:30S 29°52' E 031°01'0 0.0
2017-Sep-20 05:00S 29°52' E 031°01'0 0.0
2017-Sep-20 04:30S 29°52' E 031°01'0 0.0
2017-Sep-20 04:00S 29°52' E 031°01'0 0.0
2017-Sep-20 03:30S 29°52' E 031°01'0 0.0
2017-Sep-20 03:00S 29°52' E 031°01'0 0.0
2017-Sep-20 02:30S 29°52' E 031°01'0 0.0
2017-Sep-20 02:00S 29°52' E 031°01'0 0.0
2017-Sep-20 01:27S 29°52' E 031°01'0 0.0
2017-Sep-20 00:51S 29°52' E 031°01'0 0.0
2017-Sep-20 00:30S 29°52' E 031°01'0 0.0
2017-Sep-20 00:00S 29°52' E 031°01'0 0.0
2017-Sep-19 23:30S 29°52' E 031°01'0 0.0
2017-Sep-19 22:57S 29°52' E 031°01'0 0.0
2017-Sep-19 22:30S 29°52' E 031°01'0 0.0
2017-Sep-19 22:00S 29°52' E 031°01'0 0.0
2017-Sep-19 21:30S 29°52' E 031°01'0 0.0
2017-Sep-19 21:00S 29°52' E 031°01'0 0.0
2017-Sep-19 20:30S 29°52' E 031°01'0 0.0
2017-Sep-19 20:00S 29°52' E 031°01'0 0.0
2017-Sep-19 19:30S 29°52' E 031°01'0 0.0
2017-Sep-19 19:00S 29°52' E 031°01'0 0.0
2017-Sep-19 18:30S 29°52' E 031°01'0 0.0
2017-Sep-19 18:00S 29°52' E 031°01'0 0.0
2017-Sep-19 17:30S 29°52' E 031°01'0 0.0
2017-Sep-19 17:00S 29°52' E 031°01'0 0.0
2017-Sep-19 16:30S 29°52' E 031°01'0 0.0
2017-Sep-19 16:00S 29°52' E 031°01'0 0.0
2017-Sep-19 15:30S 29°52' E 031°01'0 0.0
2017-Sep-19 15:00S 29°52' E 031°01'0 0.0
2017-Sep-19 14:30S 29°52' E 031°01'0 0.0
2017-Sep-19 14:00S 29°52' E 031°01'0 0.0
2017-Sep-19 13:30S 29°52' E 031°01'0 0.0
2017-Sep-19 13:00S 29°52' E 031°01'0 0.0
2017-Sep-19 12:30S 29°52' E 031°01'0 0.0
2017-Sep-19 12:00S 29°52' E 031°01'0 0.0
2017-Sep-19 11:30S 29°52' E 031°01'0 0.0
2017-Sep-19 11:00S 29°52' E 031°01'0 0.0
2017-Sep-19 10:30S 29°52' E 031°01'0 0.0
2017-Sep-19 10:00S 29°52' E 031°01'0 0.0
2017-Sep-19 09:30S 29°52' E 031°01'0 0.0
2017-Sep-19 09:00S 29°52' E 031°01'0 0.0
2017-Sep-19 08:30S 29°52' E 031°01'0 0.0
2017-Sep-19 08:00S 29°52' E 031°01'0 0.0
2017-Sep-19 07:27S 29°52' E 031°01'0 0.0
2017-Sep-19 07:00S 29°52' E 031°01'0 0.0
2017-Sep-19 06:30S 29°52' E 031°01'0 0.0
2017-Sep-19 05:57S 29°52' E 031°01'0 0.0
2017-Sep-19 05:27S 29°52' E 031°01'0 0.0
2017-Sep-19 04:57S 29°52' E 031°01'0 0.0
2017-Sep-19 04:30S 29°52' E 031°01'0 0.0
2017-Sep-19 04:00S 29°52' E 031°01'0 0.0
2017-Sep-19 03:27S 29°52' E 031°01'0 0.0
2017-Sep-19 03:00S 29°52' E 031°01'0 0.0
2017-Sep-19 02:30S 29°52' E 031°01'0 0.0
2017-Sep-19 02:00S 29°52' E 031°01'0 0.0
2017-Sep-19 01:27S 29°52' E 031°01'0 0.0
2017-Sep-19 01:00S 29°52' E 031°01'0 0.0
2017-Sep-19 00:30S 29°52' E 031°01'0 0.0
2017-Sep-19 00:00S 29°52' E 031°01'0 0.0
2017-Sep-18 23:30S 29°52' E 031°01'0 0.0
2017-Sep-18 23:00S 29°52' E 031°01'0 0.3
2017-Sep-18 22:30S 29°52' E 031°01'2 3.7
2017-Sep-18 22:00S 29°53' E 031°03'3 7.0
2017-Sep-18 21:30S 29°50' E 031°05'0 0.6
2017-Sep-18 21:00S 29°50' E 031°05'2 4.4
2017-Sep-18 20:30S 29°48' E 031°07'5 9.6
2017-Sep-18 20:01S 29°45' E 031°12'1 2.7
2017-Sep-18 19:31S 29°45' E 031°13'0 0.2
2017-Sep-18 18:58S 29°44' E 031°13'0 0.0
2017-Sep-18 18:28S 29°44' E 031°13'0 0.0
2017-Sep-18 17:58S 29°44' E 031°13'0 0.0
2017-Sep-18 17:28S 29°44' E 031°13'0 0.0
2017-Sep-18 16:58S 29°44' E 031°13'0 0.1
2017-Sep-18 16:28S 29°45' E 031°13'0 0.1
2017-Sep-18 15:58S 29°44' E 031°13'0 0.0
2017-Sep-18 15:28S 29°44' E 031°13'0 0.0
2017-Sep-18 14:58S 29°44' E 031°13'0 0.0
2017-Sep-18 14:28S 29°44' E 031°13'0 0.1
2017-Sep-18 13:58S 29°44' E 031°13'0 0.0
2017-Sep-18 13:28S 29°44' E 031°13'0 0.0
2017-Sep-18 12:58S 29°44' E 031°13'0 0.0
2017-Sep-18 12:28S 29°44' E 031°13'0 0.0
2017-Sep-18 11:58S 29°44' E 031°13'0 0.0
2017-Sep-18 11:28S 29°44' E 031°13'0 0.0
2017-Sep-18 10:58S 29°44' E 031°13'0 0.0
2017-Sep-18 10:28S 29°44' E 031°13'0 0.0
2017-Sep-18 09:58S 29°44' E 031°13'0 0.0
2017-Sep-18 09:28S 29°44' E 031°13'0 0.0
2017-Sep-18 08:58S 29°44' E 031°13'0 0.0
2017-Sep-18 08:28S 29°44' E 031°13'0 0.0
2017-Sep-18 07:58S 29°44' E 031°13'0 0.0
2017-Sep-18 07:28S 29°44' E 031°13'0 0.1
2017-Sep-18 06:58S 29°44' E 031°13'0 0.0
2017-Sep-18 06:28S 29°44' E 031°13'0 0.1
2017-Sep-18 05:58S 29°44' E 031°13'0 0.0
2017-Sep-18 05:28S 29°44' E 031°13'0 0.1
2017-Sep-18 04:58S 29°44' E 031°13'0 0.1
2017-Sep-18 04:28S 29°44' E 031°13'0 0.1
2017-Sep-18 03:58S 29°44' E 031°13'0 0.0
2017-Sep-18 03:28S 29°44' E 031°13'0 0.0
2017-Sep-18 02:58S 29°44' E 031°13'0 0.0
2017-Sep-18 02:28S 29°44' E 031°13'0 0.0
2017-Sep-18 01:58S 29°44' E 031°13'0 0.0
2017-Sep-17 18:55S 29°44' E 031°13'0 0.0
2017-Sep-17 18:28S 29°44' E 031°13'0 0.0
2017-Sep-17 17:58S 29°44' E 031°13'0 0.1
2017-Sep-17 17:28S 29°44' E 031°13'0 0.0
2017-Sep-17 16:58S 29°44' E 031°13'0 0.1
2017-Sep-17 16:28S 29°44' E 031°13'0 0.0
2017-Sep-17 15:58S 29°44' E 031°13'0 0.0
2017-Sep-17 15:28S 29°44' E 031°13'0 0.1
2017-Sep-17 14:58S 29°44' E 031°13'0 0.0
2017-Sep-17 14:28S 29°44' E 031°13'0 0.0
2017-Sep-17 13:58S 29°44' E 031°13'0 0.0
2017-Sep-17 13:28S 29°44' E 031°13'0 0.0
2017-Sep-17 12:58S 29°44' E 031°13'0 0.0
2017-Sep-17 12:28S 29°44' E 031°13'0 0.0
2017-Sep-17 11:58S 29°44' E 031°13'0 0.0
2017-Sep-17 11:28S 29°44' E 031°13'0 0.0
2017-Sep-17 10:58S 29°44' E 031°13'0 0.1
2017-Sep-17 10:28S 29°44' E 031°13'0 0.0
2017-Sep-17 09:58S 29°44' E 031°13'0 0.1
2017-Sep-17 09:28S 29°44' E 031°13'0 0.1
2017-Sep-17 08:58S 29°44' E 031°13'0 0.0
2017-Sep-17 08:28S 29°44' E 031°13'0 0.0
2017-Sep-17 07:58S 29°44' E 031°13'0 0.0
2017-Sep-17 07:28S 29°44' E 031°13'0 0.0
2017-Sep-17 06:58S 29°44' E 031°13'0 0.0
2017-Sep-17 06:28S 29°44' E 031°13'0 0.0
2017-Sep-17 05:58S 29°44' E 031°13'0 0.0
2017-Sep-17 05:28S 29°44' E 031°13'0 0.1
2017-Sep-17 04:58S 29°44' E 031°13'0 0.0
2017-Sep-17 04:28S 29°44' E 031°13'0 0.1
2017-Sep-17 03:58S 29°44' E 031°13'0 0.1
2017-Sep-17 03:28S 29°44' E 031°13'0 0.1
2017-Sep-17 02:58S 29°44' E 031°13'0 0.1
2017-Sep-17 02:28S 29°44' E 031°13'0 0.1
2017-Sep-17 01:58S 29°44' E 031°13'0 0.1
2017-Sep-17 01:25S 29°44' E 031°13'0 0.0
2017-Sep-17 00:58S 29°44' E 031°13'0 0.0
2017-Sep-17 00:28S 29°44' E 031°13'0 0.0
2017-Sep-16 23:58S 29°44' E 031°13'0 0.1
2017-Sep-16 23:28S 29°44' E 031°13'0 0.1
2017-Sep-16 22:58S 29°44' E 031°13'0 0.1
2017-Sep-16 22:28S 29°44' E 031°13'0 0.0
2017-Sep-16 21:58S 29°44' E 031°13'0 0.0
2017-Sep-16 21:28S 29°44' E 031°13'0 0.2
2017-Sep-16 20:58S 29°44' E 031°13'0 0.4
2017-Sep-16 20:28S 29°45' E 031°13'0 0.1
2017-Sep-16 19:58S 29°45' E 031°13'0 0.2
2017-Sep-16 19:28S 29°45' E 031°13'0 0.1
2017-Sep-16 18:58S 29°45' E 031°13'0 0.1
2017-Sep-16 18:28S 29°45' E 031°13'0 0.1
2017-Sep-16 17:58S 29°45' E 031°13'0 0.1
2017-Sep-16 17:28S 29°45' E 031°13'0 0.2
2017-Sep-16 16:58S 29°45' E 031°13'0 0.2
2017-Sep-16 16:28S 29°45' E 031°13'0 0.2
2017-Sep-16 15:58S 29°45' E 031°13'0 0.1
2017-Sep-16 15:28S 29°45' E 031°13'0 0.0
2017-Sep-16 14:58S 29°45' E 031°13'0 0.4
2017-Sep-16 14:28S 29°45' E 031°13'0 0.0
2017-Sep-16 13:58S 29°45' E 031°13'0 0.1
2017-Sep-16 13:28S 29°45' E 031°13'0 0.1
2017-Sep-16 12:58S 29°45' E 031°13'0 0.0
2017-Sep-16 12:28S 29°45' E 031°13'0 0.0
2017-Sep-16 12:01S 29°45' E 031°13'0 0.0
2017-Sep-16 11:28S 29°45' E 031°13'0 0.0
2017-Sep-16 10:58S 29°45' E 031°13'0 0.1
2017-Sep-16 10:28S 29°45' E 031°13'0 0.0
2017-Sep-16 09:58S 29°45' E 031°13'0 0.1
2017-Sep-16 09:28S 29°45' E 031°13'0 0.1
2017-Sep-16 08:58S 29°45' E 031°13'0 0.1
2017-Sep-16 08:28S 29°45' E 031°13'0 0.0
2017-Sep-16 07:58S 29°45' E 031°13'0 0.0
2017-Sep-16 07:28S 29°45' E 031°13'0 0.0
2017-Sep-16 06:58S 29°45' E 031°13'0 0.0
2017-Sep-16 06:28S 29°45' E 031°13'0 0.0
2017-Sep-16 05:58S 29°45' E 031°13'0 0.0
2017-Sep-16 05:28S 29°45' E 031°13'0 0.0
2017-Sep-16 04:58S 29°45' E 031°13'0 0.0
2017-Sep-16 04:28S 29°45' E 031°13'0 0.0
2017-Sep-16 03:52S 29°45' E 031°13'0 0.0
2017-Sep-16 03:28S 29°45' E 031°13'0 0.0
2017-Sep-16 02:58S 29°45' E 031°13'0 0.0
2017-Sep-16 02:28S 29°45' E 031°13'0 0.0
2017-Sep-16 01:58S 29°45' E 031°13'0 0.0
2017-Sep-16 01:25S 29°45' E 031°13'0 0.0
2017-Sep-16 01:00S 29°45' E 031°13'0 0.0
2017-Sep-16 00:28S 29°45' E 031°13'0 0.0
2017-Sep-15 23:58S 29°45' E 031°13'0 0.0
2017-Sep-15 23:31S 29°45' E 031°13'0 0.0
2017-Sep-15 22:58S 29°45' E 031°13'0 0.0
2017-Sep-15 22:31S 29°45' E 031°13'0 0.0
2017-Sep-15 21:58S 29°45' E 031°13'0 0.0
2017-Sep-15 21:28S 29°45' E 031°13'0 0.0
2017-Sep-15 20:58S 29°45' E 031°13'0 0.0
2017-Sep-15 20:28S 29°45' E 031°13'0 0.0
2017-Sep-15 19:58S 29°45' E 031°13'0 0.0
2017-Sep-15 19:28S 29°45' E 031°13'0 0.0
2017-Sep-15 18:57S 29°45' E 031°13'0 0.0
2017-Sep-15 18:27S 29°45' E 031°13'0 0.0
2017-Sep-15 17:58S 29°45' E 031°13'0 0.0
2017-Sep-15 17:31S 29°45' E 031°13'0 0.0
2017-Sep-15 17:00S 29°45' E 031°13'0 0.0
2017-Sep-15 16:28S 29°45' E 031°13'0 0.0
2017-Sep-15 16:01S 29°45' E 031°13'0 0.1
2017-Sep-15 15:31S 29°45' E 031°13'0 0.0
2017-Sep-15 15:01S 29°45' E 031°13'0 0.0
2017-Sep-15 14:27S 29°45' E 031°13'0 0.0
2017-Sep-15 14:00S 29°45' E 031°13'0 0.0
2017-Sep-15 13:31S 29°45' E 031°13'0 0.0
2017-Sep-15 12:57S 29°45' E 031°13'0 0.0
2017-Sep-15 12:30S 29°45' E 031°13'0 0.0
2017-Sep-15 12:00S 29°45' E 031°13'0 0.0
2017-Sep-15 11:30S 29°45' E 031°13'0 0.0
2017-Sep-15 11:00S 29°45' E 031°13'0 0.0
2017-Sep-15 10:30S 29°45' E 031°13'0 0.0
2017-Sep-15 10:01S 29°45' E 031°13'0 0.0
2017-Sep-15 09:30S 29°45' E 031°13'0 0.1
2017-Sep-15 09:00S 29°45' E 031°13'0 0.0
2017-Sep-15 08:30S 29°45' E 031°13'0 0.0
2017-Sep-15 08:00S 29°45' E 031°13'0 0.0
2017-Sep-15 07:30S 29°45' E 031°13'0 0.0
2017-Sep-15 06:57S 29°45' E 031°13'0 0.0
2017-Sep-15 06:31S 29°45' E 031°13'0 0.1
2017-Sep-15 06:00S 29°45' E 031°13'0 0.0
2017-Sep-15 05:30S 29°45' E 031°13'0 0.0
2017-Sep-15 05:01S 29°45' E 031°13'0 0.1
2017-Sep-15 04:30S 29°45' E 031°13'0 0.1
2017-Sep-15 04:00S 29°45' E 031°13'0 0.1
2017-Sep-15 03:30S 29°45' E 031°13'0 0.1
2017-Sep-15 03:00S 29°45' E 031°13'0 0.1
2017-Sep-15 02:30S 29°45' E 031°13'0 0.0
2017-Sep-15 02:00S 29°45' E 031°13'0 0.1
2017-Sep-15 01:24S 29°45' E 031°13'0 0.0
2017-Sep-15 01:00S 29°45' E 031°13'0 0.0
2017-Sep-15 00:28S 29°45' E 031°13'0 0.0
2017-Sep-15 00:00S 29°45' E 031°13'0 0.0
2017-Sep-14 23:30S 29°45' E 031°13'0 0.0
2017-Sep-14 23:00S 29°45' E 031°13'0 0.0
2017-Sep-14 22:31S 29°45' E 031°13'0 0.0
2017-Sep-14 22:00S 29°45' E 031°13'0 0.0
2017-Sep-14 21:31S 29°45' E 031°13'0 0.0
2017-Sep-14 21:00S 29°45' E 031°13'0 0.0
2017-Sep-14 20:30S 29°45' E 031°13'0 0.0
2017-Sep-14 20:00S 29°45' E 031°13'0 0.0
2017-Sep-14 19:30S 29°45' E 031°13'0 0.0
2017-Sep-14 19:00S 29°45' E 031°13'0 0.1
2017-Sep-14 18:30S 29°45' E 031°13'0 0.1
2017-Sep-14 18:00S 29°45' E 031°13'0 0.0
2017-Sep-14 17:24S 29°45' E 031°13'0 0.1
2017-Sep-14 17:00S 29°45' E 031°13'0 0.0
2017-Sep-14 16:30S 29°45' E 031°13'0 0.0
2017-Sep-14 16:00S 29°45' E 031°13'0 0.0
2017-Sep-14 15:30S 29°45' E 031°13'0 0.0
2017-Sep-14 15:00S 29°45' E 031°13'0 0.0
2017-Sep-14 14:30S 29°45' E 031°13'0 0.0
2017-Sep-14 14:00S 29°45' E 031°13'0 0.0
2017-Sep-14 13:30S 29°45' E 031°13'0 0.0
2017-Sep-14 13:00S 29°45' E 031°13'0 0.0
2017-Sep-14 12:30S 29°45' E 031°13'0 0.0
2017-Sep-14 12:00S 29°45' E 031°13'0 0.0
2017-Sep-14 11:30S 29°45' E 031°13'0 0.0
2017-Sep-14 10:51S 29°45' E 031°13'0 0.1
2017-Sep-14 10:30S 29°45' E 031°13'0 0.0
2017-Sep-14 10:00S 29°45' E 031°13'0 0.0
2017-Sep-14 09:30S 29°45' E 031°13'0 0.1
2017-Sep-14 09:00S 29°45' E 031°13'0 0.0
2017-Sep-14 08:30S 29°45' E 031°13'0 0.0
2017-Sep-14 08:00S 29°45' E 031°13'0 0.0
2017-Sep-14 07:30S 29°45' E 031°13'0 0.0
2017-Sep-14 07:00S 29°45' E 031°13'0 0.0
2017-Sep-14 06:30S 29°45' E 031°13'0 0.0
2017-Sep-14 06:00S 29°45' E 031°13'0 0.0
2017-Sep-14 05:30S 29°45' E 031°13'0 0.0
2017-Sep-14 05:00S 29°45' E 031°13'0 0.0
2017-Sep-14 04:30S 29°45' E 031°13'0 0.0
2017-Sep-14 04:00S 29°45' E 031°13'0 0.0
2017-Sep-14 03:24S 29°45' E 031°13'0 0.0
2017-Sep-14 03:00S 29°45' E 031°13'0 0.0
2017-Sep-14 02:30S 29°45' E 031°13'0 0.0
2017-Sep-14 02:00S 29°45' E 031°13'0 0.0
2017-Sep-14 01:24S 29°45' E 031°13'0 0.0
2017-Sep-14 01:00S 29°45' E 031°13'0 0.0
2017-Sep-14 00:30S 29°45' E 031°13'0 0.0
2017-Sep-14 00:00S 29°45' E 031°13'0 0.0
2017-Sep-13 23:30S 29°45' E 031°13'0 0.0
2017-Sep-13 23:00S 29°45' E 031°13'0 0.0
2017-Sep-13 22:30S 29°45' E 031°13'0 0.0
2017-Sep-13 22:00S 29°45' E 031°13'0 0.0
2017-Sep-13 21:30S 29°45' E 031°13'0 0.0
2017-Sep-13 21:00S 29°45' E 031°13'0 0.0
2017-Sep-13 20:30S 29°45' E 031°13'0 0.0
2017-Sep-13 20:00S 29°45' E 031°13'0 0.0
2017-Sep-13 19:30S 29°45' E 031°13'0 0.0
2017-Sep-13 18:54S 29°45' E 031°13'0 0.0
2017-Sep-13 18:30S 29°45' E 031°13'0 0.0
2017-Sep-13 18:00S 29°45' E 031°13'0 0.0
2017-Sep-13 17:30S 29°45' E 031°13'0 0.0
2017-Sep-13 17:00S 29°45' E 031°13'0 0.0
2017-Sep-13 16:30S 29°45' E 031°13'0 0.0
2017-Sep-13 15:57S 29°45' E 031°13'0 0.0
2017-Sep-13 15:30S 29°45' E 031°13'0 0.0
2017-Sep-13 15:00S 29°45' E 031°13'0 0.0
2017-Sep-13 14:30S 29°45' E 031°13'0 0.0
2017-Sep-13 14:00S 29°45' E 031°13'0 0.0
2017-Sep-13 13:30S 29°45' E 031°13'0 0.0
2017-Sep-13 13:00S 29°45' E 031°13'0 0.0
2017-Sep-13 12:30S 29°45' E 031°13'0 0.0
2017-Sep-13 12:00S 29°45' E 031°13'0 0.0
2017-Sep-13 11:30S 29°45' E 031°13'0 0.0
2017-Sep-13 11:00S 29°45' E 031°13'0 0.0
2017-Sep-13 10:30S 29°45' E 031°13'0 0.0
2017-Sep-13 10:00S 29°45' E 031°13'0 0.0
2017-Sep-13 09:30S 29°45' E 031°13'0 0.0
2017-Sep-13 09:00S 29°45' E 031°13'0 0.0
2017-Sep-13 08:30S 29°45' E 031°13'0 0.0
2017-Sep-13 07:57S 29°45' E 031°13'0 0.0
2017-Sep-13 07:27S 29°45' E 031°13'0 0.0
2017-Sep-13 07:00S 29°45' E 031°13'0 0.0
2017-Sep-13 06:30S 29°45' E 031°13'0 0.0
2017-Sep-13 06:00S 29°45' E 031°13'0 0.0
2017-Sep-13 05:30S 29°45' E 031°13'0 0.0
2017-Sep-13 05:00S 29°45' E 031°13'0 0.1
2017-Sep-13 04:30S 29°45' E 031°13'0 0.0
2017-Sep-13 04:00S 29°45' E 031°13'0 0.0
2017-Sep-13 03:30S 29°45' E 031°13'0 0.0
2017-Sep-13 03:00S 29°45' E 031°13'0 0.0
2017-Sep-13 02:30S 29°45' E 031°13'0 0.0
2017-Sep-13 02:00S 29°45' E 031°13'0 0.0
2017-Sep-13 01:24S 29°45' E 031°13'0 0.0
2017-Sep-13 01:00S 29°45' E 031°13'0 0.0
2017-Sep-13 00:30S 29°45' E 031°13'0 0.0
2017-Sep-13 00:00S 29°45' E 031°13'0 0.0
2017-Sep-12 23:30S 29°45' E 031°13'0 0.0
2017-Sep-12 23:00S 29°45' E 031°13'0 0.0
2017-Sep-12 22:30S 29°45' E 031°13'0 0.0
2017-Sep-12 22:00S 29°45' E 031°13'0 0.0
2017-Sep-12 21:30S 29°45' E 031°13'0 0.0
2017-Sep-12 21:00S 29°45' E 031°13'0 0.1
2017-Sep-12 20:30S 29°45' E 031°13'0 0.1
2017-Sep-12 20:00S 29°45' E 031°13'0 0.4
2017-Sep-12 19:31S 29°45' E 031°13'2 3.1
2017-Sep-12 19:00S 29°47' E 031°14'2 3.7
2017-Sep-12 18:31S 29°48' E 031°13'3 6.5
2017-Sep-12 18:01S 29°52' E 031°12'611.6
2017-Sep-12 17:31S 29°57' E 031°11'5 9.7
2017-Sep-12 17:01S 30°02' E 031°09'4 8.8
2017-Sep-12 16:30S 30°06' E 031°07'5 9.9
2017-Sep-12 16:00S 30°10' E 031°05'5 9.0
2017-Sep-12 15:31S 30°14' E 031°03'5 9.2
2017-Sep-12 15:00S 30°19' E 031°00'5 9.1
2017-Sep-12 14:30S 30°23' E 030°58'4 8.9
2017-Sep-12 14:00S 30°26' E 030°55'4 8.5
2017-Sep-12 13:30S 30°30' E 030°53'1 1.6
2017-Sep-12 13:00S 30°31' E 030°53'2 4.4
2017-Sep-12 12:31S 30°33' E 030°51'4 7.9
2017-Sep-12 12:01S 30°36' E 030°49'4 7.8
2017-Sep-12 11:30S 30°40' E 030°47'4 8.0
2017-Sep-12 11:01S 30°43' E 030°45'4 7.9
2017-Sep-12 10:30S 30°47' E 030°43'4 7.6
2017-Sep-12 10:01S 30°50' E 030°41'4 7.5
2017-Sep-12 09:30S 30°53' E 030°39'5 7.9
2017-Sep-12 08:55S 30°57' E 030°36'3 8.0
2017-Sep-12 08:31S 31°00' E 030°34'4 8.1
2017-Sep-12 08:01S 31°04' E 030°32'4 7.9
2017-Sep-12 07:29S 31°08' E 030°30'4 8.0
2017-Sep-12 06:59S 31°11' E 030°28'4 7.7
2017-Sep-12 06:30S 31°15' E 030°26'4 7.6
2017-Sep-12 05:57S 31°18' E 030°24'  
Track history (hours):
 
Tides and Currents Weather Stations Pressure Air Temp Water Temp Dewpoint Dewpoint Depression Visibility Wind Speed Wind Dir Waves Ship Positions

Interlink Veracity

Last reported at 2017-Sep-21 19:47 UTC. Time now 2017-Sep-21 22:56 UTC.
Position S 29°15' E 032°05'.

Length 179 m; draft 8.2 m.

Type: Cargo ship. MMSI: 538005694.

Date/timePositionNaut miles runAvg speedWind from/ knotsBaromVisibWave heightAir tempDewpointWater temp
2017-Sep-21 19:47S 29°15' E 032°05'2 7.5
2017-Sep-21 19:29S 29°16' E 032°03'4 7.4
2017-Sep-21 19:00S 29°19' E 032°00'8 7.0
2017-Sep-21 17:49S 29°24' E 031°53'15 8.3
2017-Sep-21 15:57S 29°33' E 031°39'4 9.0
2017-Sep-21 15:30S 29°36' E 031°35'5 9.4
2017-Sep-21 15:00S 29°39' E 031°31'5 9.5
2017-Sep-21 14:30S 29°42' E 031°27'5 9.6
2017-Sep-21 14:00S 29°46' E 031°23'5 9.8
2017-Sep-21 13:30S 29°47' E 031°18'510.4
2017-Sep-21 13:00S 29°49' E 031°13'510.9
2017-Sep-21 12:30S 29°51' E 031°06'4 7.9
2017-Sep-21 12:00S 29°53' E 031°02'2 3.4
2017-Sep-21 11:30S 29°52' E 031°01'0 0.1
2017-Sep-21 11:00S 29°52' E 031°01'0 0.0
2017-Sep-21 10:27S 29°52' E 031°01'0 0.0
2017-Sep-21 10:00S 29°52' E 031°01'0 0.0
2017-Sep-21 09:30S 29°52' E 031°01'0 0.0
2017-Sep-21 09:00S 29°52' E 031°01'0 0.0
2017-Sep-21 08:30S 29°52' E 031°01'0 0.0
2017-Sep-21 08:00S 29°52' E 031°01'0 0.0
2017-Sep-21 07:30S 29°52' E 031°01'0 0.0
2017-Sep-21 07:00S 29°52' E 031°01'0 0.0
2017-Sep-21 06:30S 29°52' E 031°01'0 0.0
2017-Sep-21 06:00S 29°52' E 031°01'0 0.0
2017-Sep-21 05:30S 29°52' E 031°01'0 0.0
2017-Sep-21 05:00S 29°52' E 031°01'0 0.0
2017-Sep-21 04:30S 29°52' E 031°01'0 0.0
2017-Sep-21 04:00S 29°52' E 031°01'0 0.0
2017-Sep-21 03:30S 29°52' E 031°01'0 0.0
2017-Sep-21 03:00S 29°52' E 031°01'0 0.0
2017-Sep-21 02:30S 29°52' E 031°01'0 0.0
2017-Sep-21 02:00S 29°52' E 031°01'0 0.0
2017-Sep-21 01:24S 29°52' E 031°01'0 0.0
2017-Sep-21 01:00S 29°52' E 031°01'0 0.0
2017-Sep-21 00:30S 29°52' E 031°01'0 0.0
2017-Sep-21 00:00S 29°52' E 031°01'0 0.0
2017-Sep-20 23:30S 29°52' E 031°01'0 0.0
2017-Sep-20 23:00S 29°52' E 031°01'0 0.0
2017-Sep-20 22:30S 29°52' E 031°01'0 0.0
2017-Sep-20 22:00S 29°52' E 031°01'0 0.0
2017-Sep-20 21:30S 29°52' E 031°01'0 0.0
2017-Sep-20 21:00S 29°52' E 031°01'0 0.0
2017-Sep-20 20:30S 29°52' E 031°01'0 0.0
2017-Sep-20 20:00S 29°52' E 031°01'0 0.0
2017-Sep-20 19:30S 29°52' E 031°01'0 0.0
2017-Sep-20 19:00S 29°52' E 031°01'0 0.0
2017-Sep-20 18:30S 29°52' E 031°01'0 0.0
2017-Sep-20 18:00S 29°52' E 031°01'0 0.0
2017-Sep-20 17:30S 29°52' E 031°01'0 0.0
2017-Sep-20 17:00S 29°52' E 031°01'0 0.0
2017-Sep-20 16:30S 29°52' E 031°01'0 0.0
2017-Sep-20 16:00S 29°52' E 031°01'0 0.0
2017-Sep-20 15:30S 29°52' E 031°01'0 0.0
2017-Sep-20 15:00S 29°52' E 031°01'0 0.0
2017-Sep-20 14:00S 29°52' E 031°01'0 0.0
2017-Sep-20 13:30S 29°52' E 031°01'0 0.0
2017-Sep-20 13:00S 29°52' E 031°01'0 0.0
2017-Sep-20 12:30S 29°52' E 031°01'0 0.0
2017-Sep-20 12:00S 29°52' E 031°01'0 0.0
2017-Sep-20 11:30S 29°52' E 031°01'0 0.0
2017-Sep-20 11:00S 29°52' E 031°01'0 0.0
2017-Sep-20 10:30S 29°52' E 031°01'0 0.0
2017-Sep-20 10:00S 29°52' E 031°01'0 0.0
2017-Sep-20 09:30S 29°52' E 031°01'0 0.0
2017-Sep-20 09:00S 29°52' E 031°01'0 0.0
2017-Sep-20 08:30S 29°52' E 031°01'0 0.0
2017-Sep-20 08:00S 29°52' E 031°01'0 0.0
2017-Sep-20 07:30S 29°52' E 031°01'0 0.0
2017-Sep-20 07:00S 29°52' E 031°01'0 0.0
2017-Sep-20 06:30S 29°52' E 031°01'0 0.0
2017-Sep-20 06:00S 29°52' E 031°01'0 0.0
2017-Sep-20 05:30S 29°52' E 031°01'0 0.0
2017-Sep-20 05:00S 29°52' E 031°01'0 0.0
2017-Sep-20 04:30S 29°52' E 031°01'0 0.0
2017-Sep-20 04:00S 29°52' E 031°01'0 0.0
2017-Sep-20 03:30S 29°52' E 031°01'0 0.0
2017-Sep-20 03:00S 29°52' E 031°01'0 0.0
2017-Sep-20 02:30S 29°52' E 031°01'0 0.0
2017-Sep-20 02:00S 29°52' E 031°01'0 0.0
2017-Sep-20 01:27S 29°52' E 031°01'0 0.0
2017-Sep-20 00:51S 29°52' E 031°01'0 0.0
2017-Sep-20 00:30S 29°52' E 031°01'0 0.0
2017-Sep-20 00:00S 29°52' E 031°01'0 0.0
2017-Sep-19 23:30S 29°52' E 031°01'0 0.0
2017-Sep-19 22:57S 29°52' E 031°01'0 0.0
2017-Sep-19 22:30S 29°52' E 031°01'0 0.0
2017-Sep-19 22:00S 29°52' E 031°01'0 0.0
2017-Sep-19 21:30S 29°52' E 031°01'0 0.0
2017-Sep-19 21:00S 29°52' E 031°01'0 0.0
2017-Sep-19 20:30S 29°52' E 031°01'0 0.0
2017-Sep-19 20:00S 29°52' E 031°01'0 0.0
2017-Sep-19 19:30S 29°52' E 031°01'0 0.0
2017-Sep-19 19:00S 29°52' E 031°01'0 0.0
2017-Sep-19 18:30S 29°52' E 031°01'0 0.0
2017-Sep-19 18:00S 29°52' E 031°01'0 0.0
2017-Sep-19 17:30S 29°52' E 031°01'0 0.0
2017-Sep-19 17:00S 29°52' E 031°01'0 0.0
2017-Sep-19 16:30S 29°52' E 031°01'0 0.0
2017-Sep-19 16:00S 29°52' E 031°01'0 0.0
2017-Sep-19 15:30S 29°52' E 031°01'0 0.0
2017-Sep-19 15:00S 29°52' E 031°01'0 0.0
2017-Sep-19 14:30S 29°52' E 031°01'0 0.0
2017-Sep-19 14:00S 29°52' E 031°01'0 0.0
2017-Sep-19 13:30S 29°52' E 031°01'0 0.0
2017-Sep-19 13:00S 29°52' E 031°01'0 0.0
2017-Sep-19 12:30S 29°52' E 031°01'0 0.0
2017-Sep-19 12:00S 29°52' E 031°01'0 0.0
2017-Sep-19 11:30S 29°52' E 031°01'0 0.0
2017-Sep-19 11:00S 29°52' E 031°01'0 0.0
2017-Sep-19 10:30S 29°52' E 031°01'0 0.0
2017-Sep-19 10:00S 29°52' E 031°01'0 0.0
2017-Sep-19 09:30S 29°52' E 031°01'0 0.0
2017-Sep-19 09:00S 29°52' E 031°01'0 0.0
2017-Sep-19 08:30S 29°52' E 031°01'0 0.0
2017-Sep-19 08:00S 29°52' E 031°01'0 0.0
2017-Sep-19 07:27S 29°52' E 031°01'0 0.0
2017-Sep-19 07:00S 29°52' E 031°01'0 0.0
2017-Sep-19 06:30S 29°52' E 031°01'0 0.0
2017-Sep-19 05:57S 29°52' E 031°01'0 0.0
2017-Sep-19 05:27S 29°52' E 031°01'0 0.0
2017-Sep-19 04:57S 29°52' E 031°01'0 0.0
2017-Sep-19 04:30S 29°52' E 031°01'0 0.0
2017-Sep-19 04:00S 29°52' E 031°01'0 0.0
2017-Sep-19 03:27S 29°52' E 031°01'0 0.0
2017-Sep-19 03:00S 29°52' E 031°01'0 0.0
2017-Sep-19 02:30S 29°52' E 031°01'0 0.0
2017-Sep-19 02:00S 29°52' E 031°01'0 0.0
2017-Sep-19 01:27S 29°52' E 031°01'0 0.0
2017-Sep-19 01:00S 29°52' E 031°01'0 0.0
2017-Sep-19 00:30S 29°52' E 031°01'0 0.0
2017-Sep-19 00:00S 29°52' E 031°01'0 0.0
2017-Sep-18 23:30S 29°52' E 031°01'0 0.0
2017-Sep-18 23:00S 29°52' E 031°01'0 0.3
2017-Sep-18 22:30S 29°52' E 031°01'2 3.7
2017-Sep-18 22:00S 29°53' E 031°03'3 7.0
2017-Sep-18 21:30S 29°50' E 031°05'0 0.6
2017-Sep-18 21:00S 29°50' E 031°05'2 4.4
2017-Sep-18 20:30S 29°48' E 031°07'5 9.6
2017-Sep-18 20:01S 29°45' E 031°12'1 2.7
2017-Sep-18 19:31S 29°45' E 031°13'0 0.2
2017-Sep-18 18:58S 29°44' E 031°13'0 0.0
2017-Sep-18 18:28S 29°44' E 031°13'0 0.0
2017-Sep-18 17:58S 29°44' E 031°13'0 0.0
2017-Sep-18 17:28S 29°44' E 031°13'0 0.0
2017-Sep-18 16:58S 29°44' E 031°13'0 0.1
2017-Sep-18 16:28S 29°45' E 031°13'0 0.1
2017-Sep-18 15:58S 29°44' E 031°13'0 0.0
2017-Sep-18 15:28S 29°44' E 031°13'0 0.0
2017-Sep-18 14:58S 29°44' E 031°13'0 0.0
2017-Sep-18 14:28S 29°44' E 031°13'0 0.1
2017-Sep-18 13:58S 29°44' E 031°13'0 0.0
2017-Sep-18 13:28S 29°44' E 031°13'0 0.0
2017-Sep-18 12:58S 29°44' E 031°13'0 0.0
2017-Sep-18 12:28S 29°44' E 031°13'0 0.0
2017-Sep-18 11:58S 29°44' E 031°13'0 0.0
2017-Sep-18 11:28S 29°44' E 031°13'0 0.0
2017-Sep-18 10:58S 29°44' E 031°13'0 0.0
2017-Sep-18 10:28S 29°44' E 031°13'0 0.0
2017-Sep-18 09:58S 29°44' E 031°13'0 0.0
2017-Sep-18 09:28S 29°44' E 031°13'0 0.0
2017-Sep-18 08:58S 29°44' E 031°13'0 0.0
2017-Sep-18 08:28S 29°44' E 031°13'0 0.0
2017-Sep-18 07:58S 29°44' E 031°13'0 0.0
2017-Sep-18 07:28S 29°44' E 031°13'0 0.1
2017-Sep-18 06:58S 29°44' E 031°13'0 0.0
2017-Sep-18 06:28S 29°44' E 031°13'0 0.1
2017-Sep-18 05:58S 29°44' E 031°13'0 0.0
2017-Sep-18 05:28S 29°44' E 031°13'0 0.1
2017-Sep-18 04:58S 29°44' E 031°13'0 0.1
2017-Sep-18 04:28S 29°44' E 031°13'0 0.1
2017-Sep-18 03:58S 29°44' E 031°13'0 0.0
2017-Sep-18 03:28S 29°44' E 031°13'0 0.0
2017-Sep-18 02:58S 29°44' E 031°13'0 0.0
2017-Sep-18 02:28S 29°44' E 031°13'0 0.0
2017-Sep-18 01:58S 29°44' E 031°13'0 0.0
2017-Sep-17 18:55S 29°44' E 031°13'0 0.0
2017-Sep-17 18:28S 29°44' E 031°13'0 0.0
2017-Sep-17 17:58S 29°44' E 031°13'0 0.1
2017-Sep-17 17:28S 29°44' E 031°13'0 0.0
2017-Sep-17 16:58S 29°44' E 031°13'0 0.1
2017-Sep-17 16:28S 29°44' E 031°13'0 0.0
2017-Sep-17 15:58S 29°44' E 031°13'0 0.0
2017-Sep-17 15:28S 29°44' E 031°13'0 0.1
2017-Sep-17 14:58S 29°44' E 031°13'0 0.0
2017-Sep-17 14:28S 29°44' E 031°13'0 0.0
2017-Sep-17 13:58S 29°44' E 031°13'0 0.0
2017-Sep-17 13:28S 29°44' E 031°13'0 0.0
2017-Sep-17 12:58S 29°44' E 031°13'0 0.0
2017-Sep-17 12:28S 29°44' E 031°13'0 0.0
2017-Sep-17 11:58S 29°44' E 031°13'0 0.0
2017-Sep-17 11:28S 29°44' E 031°13'0 0.0
2017-Sep-17 10:58S 29°44' E 031°13'0 0.1
2017-Sep-17 10:28S 29°44' E 031°13'0 0.0
2017-Sep-17 09:58S 29°44' E 031°13'0 0.1
2017-Sep-17 09:28S 29°44' E 031°13'0 0.1
2017-Sep-17 08:58S 29°44' E 031°13'0 0.0
2017-Sep-17 08:28S 29°44' E 031°13'0 0.0
2017-Sep-17 07:58S 29°44' E 031°13'0 0.0
2017-Sep-17 07:28S 29°44' E 031°13'0 0.0
2017-Sep-17 06:58S 29°44' E 031°13'0 0.0
2017-Sep-17 06:28S 29°44' E 031°13'0 0.0
2017-Sep-17 05:58S 29°44' E 031°13'0 0.0
2017-Sep-17 05:28S 29°44' E 031°13'0 0.1
2017-Sep-17 04:58S 29°44' E 031°13'0 0.0
2017-Sep-17 04:28S 29°44' E 031°13'0 0.1
2017-Sep-17 03:58S 29°44' E 031°13'0 0.1
2017-Sep-17 03:28S 29°44' E 031°13'0 0.1
2017-Sep-17 02:58S 29°44' E 031°13'0 0.1
2017-Sep-17 02:28S 29°44' E 031°13'0 0.1
2017-Sep-17 01:58S 29°44' E 031°13'0 0.1
2017-Sep-17 01:25S 29°44' E 031°13'0 0.0
2017-Sep-17 00:58S 29°44' E 031°13'0 0.0
2017-Sep-17 00:28S 29°44' E 031°13'0 0.0
2017-Sep-16 23:58S 29°44' E 031°13'0 0.1
2017-Sep-16 23:28S 29°44' E 031°13'0 0.1
2017-Sep-16 22:58S 29°44' E 031°13'0 0.1
2017-Sep-16 22:28S 29°44' E 031°13'0 0.0
2017-Sep-16 21:58S 29°44' E 031°13'0 0.0
2017-Sep-16 21:28S 29°44' E 031°13'0 0.2
2017-Sep-16 20:58S 29°44' E 031°13'0 0.4
2017-Sep-16 20:28S 29°45' E 031°13'0 0.1
2017-Sep-16 19:58S 29°45' E 031°13'0 0.2
2017-Sep-16 19:28S 29°45' E 031°13'0 0.1
2017-Sep-16 18:58S 29°45' E 031°13'0 0.1
2017-Sep-16 18:28S 29°45' E 031°13'0 0.1
2017-Sep-16 17:58S 29°45' E 031°13'0 0.1
2017-Sep-16 17:28S 29°45' E 031°13'0 0.2
2017-Sep-16 16:58S 29°45' E 031°13'0 0.2
2017-Sep-16 16:28S 29°45' E 031°13'0 0.2
2017-Sep-16 15:58S 29°45' E 031°13'0 0.1
2017-Sep-16 15:28S 29°45' E 031°13'0 0.0
2017-Sep-16 14:58S 29°45' E 031°13'0 0.4
2017-Sep-16 14:28S 29°45' E 031°13'0 0.0
2017-Sep-16 13:58S 29°45' E 031°13'0 0.1
2017-Sep-16 13:28S 29°45' E 031°13'0 0.1
2017-Sep-16 12:58S 29°45' E 031°13'0 0.0
2017-Sep-16 12:28S 29°45' E 031°13'0 0.0
2017-Sep-16 12:01S 29°45' E 031°13'0 0.0
2017-Sep-16 11:28S 29°45' E 031°13'0 0.0
2017-Sep-16 10:58S 29°45' E 031°13'0 0.1
2017-Sep-16 10:28S 29°45' E 031°13'0 0.0
2017-Sep-16 09:58S 29°45' E 031°13'0 0.1
2017-Sep-16 09:28S 29°45' E 031°13'0 0.1
2017-Sep-16 08:58S 29°45' E 031°13'0 0.1
2017-Sep-16 08:28S 29°45' E 031°13'0 0.0
2017-Sep-16 07:58S 29°45' E 031°13'0 0.0
2017-Sep-16 07:28S 29°45' E 031°13'0 0.0
2017-Sep-16 06:58S 29°45' E 031°13'0 0.0
2017-Sep-16 06:28S 29°45' E 031°13'0 0.0
2017-Sep-16 05:58S 29°45' E 031°13'0 0.0
2017-Sep-16 05:28S 29°45' E 031°13'0 0.0
2017-Sep-16 04:58S 29°45' E 031°13'0 0.0
2017-Sep-16 04:28S 29°45' E 031°13'0 0.0
2017-Sep-16 03:52S 29°45' E 031°13'0 0.0
2017-Sep-16 03:28S 29°45' E 031°13'0 0.0
2017-Sep-16 02:58S 29°45' E 031°13'0 0.0
2017-Sep-16 02:28S 29°45' E 031°13'0 0.0
2017-Sep-16 01:58S 29°45' E 031°13'0 0.0
2017-Sep-16 01:25S 29°45' E 031°13'0 0.0
2017-Sep-16 01:00S 29°45' E 031°13'0 0.0
2017-Sep-16 00:28S 29°45' E 031°13'0 0.0
2017-Sep-15 23:58S 29°45' E 031°13'0 0.0
2017-Sep-15 23:31S 29°45' E 031°13'0 0.0
2017-Sep-15 22:58S 29°45' E 031°13'0 0.0
2017-Sep-15 22:31S 29°45' E 031°13'0 0.0
2017-Sep-15 21:58S 29°45' E 031°13'0 0.0
2017-Sep-15 21:28S 29°45' E 031°13'0 0.0
2017-Sep-15 20:58S 29°45' E 031°13'0 0.0
2017-Sep-15 20:28S 29°45' E 031°13'0 0.0
2017-Sep-15 19:58S 29°45' E 031°13'0 0.0
2017-Sep-15 19:28S 29°45' E 031°13'0 0.0
2017-Sep-15 18:57S 29°45' E 031°13'0 0.0
2017-Sep-15 18:27S 29°45' E 031°13'0 0.0
2017-Sep-15 17:58S 29°45' E 031°13'0 0.0
2017-Sep-15 17:31S 29°45' E 031°13'0 0.0
2017-Sep-15 17:00S 29°45' E 031°13'0 0.0
2017-Sep-15 16:28S 29°45' E 031°13'0 0.0
2017-Sep-15 16:01S 29°45' E 031°13'0 0.1
2017-Sep-15 15:31S 29°45' E 031°13'0 0.0
2017-Sep-15 15:01S 29°45' E 031°13'0 0.0
2017-Sep-15 14:27S 29°45' E 031°13'0 0.0
2017-Sep-15 14:00S 29°45' E 031°13'0 0.0
2017-Sep-15 13:31S 29°45' E 031°13'0 0.0
2017-Sep-15 12:57S 29°45' E 031°13'0 0.0
2017-Sep-15 12:30S 29°45' E 031°13'0 0.0
2017-Sep-15 12:00S 29°45' E 031°13'0 0.0
2017-Sep-15 11:30S 29°45' E 031°13'0 0.0
2017-Sep-15 11:00S 29°45' E 031°13'0 0.0
2017-Sep-15 10:30S 29°45' E 031°13'0 0.0
2017-Sep-15 10:01S 29°45' E 031°13'0 0.0
2017-Sep-15 09:30S 29°45' E 031°13'0 0.1
2017-Sep-15 09:00S 29°45' E 031°13'0 0.0
2017-Sep-15 08:30S 29°45' E 031°13'0 0.0
2017-Sep-15 08:00S 29°45' E 031°13'0 0.0
2017-Sep-15 07:30S 29°45' E 031°13'0 0.0
2017-Sep-15 06:57S 29°45' E 031°13'0 0.0
2017-Sep-15 06:31S 29°45' E 031°13'0 0.1
2017-Sep-15 06:00S 29°45' E 031°13'0 0.0
2017-Sep-15 05:30S 29°45' E 031°13'0 0.0
2017-Sep-15 05:01S 29°45' E 031°13'0 0.1
2017-Sep-15 04:30S 29°45' E 031°13'0 0.1
2017-Sep-15 04:00S 29°45' E 031°13'0 0.1
2017-Sep-15 03:30S 29°45' E 031°13'0 0.1
2017-Sep-15 03:00S 29°45' E 031°13'0 0.1
2017-Sep-15 02:30S 29°45' E 031°13'0 0.0
2017-Sep-15 02:00S 29°45' E 031°13'0 0.1
2017-Sep-15 01:24S 29°45' E 031°13'0 0.0
2017-Sep-15 01:00S 29°45' E 031°13'0 0.0
2017-Sep-15 00:28S 29°45' E 031°13'0 0.0
2017-Sep-15 00:00S 29°45' E 031°13'0 0.0
2017-Sep-14 23:30S 29°45' E 031°13'0 0.0
2017-Sep-14 23:00S 29°45' E 031°13'0 0.0
2017-Sep-14 22:31S 29°45' E 031°13'0 0.0
2017-Sep-14 22:00S 29°45' E 031°13'0 0.0
2017-Sep-14 21:31S 29°45' E 031°13'0 0.0
2017-Sep-14 21:00S 29°45' E 031°13'0 0.0
2017-Sep-14 20:30S 29°45' E 031°13'0 0.0
2017-Sep-14 20:00S 29°45' E 031°13'0 0.0
2017-Sep-14 19:30S 29°45' E 031°13'0 0.0
2017-Sep-14 19:00S 29°45' E 031°13'0 0.1
2017-Sep-14 18:30S 29°45' E 031°13'0 0.1
2017-Sep-14 18:00S 29°45' E 031°13'0 0.0
2017-Sep-14 17:24S 29°45' E 031°13'0 0.1
2017-Sep-14 17:00S 29°45' E 031°13'0 0.0
2017-Sep-14 16:30S 29°45' E 031°13'0 0.0
2017-Sep-14 16:00S 29°45' E 031°13'0 0.0
2017-Sep-14 15:30S 29°45' E 031°13'0 0.0
2017-Sep-14 15:00S 29°45' E 031°13'0 0.0
2017-Sep-14 14:30S 29°45' E 031°13'0 0.0
2017-Sep-14 14:00S 29°45' E 031°13'0 0.0
2017-Sep-14 13:30S 29°45' E 031°13'0 0.0
2017-Sep-14 13:00S 29°45' E 031°13'0 0.0
2017-Sep-14 12:30S 29°45' E 031°13'0 0.0
2017-Sep-14 12:00S 29°45' E 031°13'0 0.0
2017-Sep-14 11:30S 29°45' E 031°13'0 0.0
2017-Sep-14 10:51S 29°45' E 031°13'0 0.1
2017-Sep-14 10:30S 29°45' E 031°13'0 0.0
2017-Sep-14 10:00S 29°45' E 031°13'0 0.0
2017-Sep-14 09:30S 29°45' E 031°13'0 0.1
2017-Sep-14 09:00S 29°45' E 031°13'0 0.0
2017-Sep-14 08:30S 29°45' E 031°13'0 0.0
2017-Sep-14 08:00S 29°45' E 031°13'0 0.0
2017-Sep-14 07:30S 29°45' E 031°13'0 0.0
2017-Sep-14 07:00S 29°45' E 031°13'0 0.0
2017-Sep-14 06:30S 29°45' E 031°13'0 0.0
2017-Sep-14 06:00S 29°45' E 031°13'0 0.0
2017-Sep-14 05:30S 29°45' E 031°13'0 0.0
2017-Sep-14 05:00S 29°45' E 031°13'0 0.0
2017-Sep-14 04:30S 29°45' E 031°13'0 0.0
2017-Sep-14 04:00S 29°45' E 031°13'0 0.0
2017-Sep-14 03:24S 29°45' E 031°13'0 0.0
2017-Sep-14 03:00S 29°45' E 031°13'0 0.0
2017-Sep-14 02:30S 29°45' E 031°13'0 0.0
2017-Sep-14 02:00S 29°45' E 031°13'0 0.0
2017-Sep-14 01:24S 29°45' E 031°13'0 0.0
2017-Sep-14 01:00S 29°45' E 031°13'0 0.0
2017-Sep-14 00:30S 29°45' E 031°13'0 0.0
2017-Sep-14 00:00S 29°45' E 031°13'0 0.0
2017-Sep-13 23:30S 29°45' E 031°13'0 0.0
2017-Sep-13 23:00S 29°45' E 031°13'0 0.0
2017-Sep-13 22:30S 29°45' E 031°13'0 0.0
2017-Sep-13 22:00S 29°45' E 031°13'0 0.0
2017-Sep-13 21:30S 29°45' E 031°13'0 0.0
2017-Sep-13 21:00S 29°45' E 031°13'0 0.0
2017-Sep-13 20:30S 29°45' E 031°13'0 0.0
2017-Sep-13 20:00S 29°45' E 031°13'0 0.0
2017-Sep-13 19:30S 29°45' E 031°13'0 0.0
2017-Sep-13 18:54S 29°45' E 031°13'0 0.0
2017-Sep-13 18:30S 29°45' E 031°13'0 0.0
2017-Sep-13 18:00S 29°45' E 031°13'0 0.0
2017-Sep-13 17:30S 29°45' E 031°13'0 0.0
2017-Sep-13 17:00S 29°45' E 031°13'0 0.0
2017-Sep-13 16:30S 29°45' E 031°13'0 0.0
2017-Sep-13 15:57S 29°45' E 031°13'0 0.0
2017-Sep-13 15:30S 29°45' E 031°13'0 0.0
2017-Sep-13 15:00S 29°45' E 031°13'0 0.0
2017-Sep-13 14:30S 29°45' E 031°13'0 0.0
2017-Sep-13 14:00S 29°45' E 031°13'0 0.0
2017-Sep-13 13:30S 29°45' E 031°13'0 0.0
2017-Sep-13 13:00S 29°45' E 031°13'0 0.0
2017-Sep-13 12:30S 29°45' E 031°13'0 0.0
2017-Sep-13 12:00S 29°45' E 031°13'0 0.0
2017-Sep-13 11:30S 29°45' E 031°13'0 0.0
2017-Sep-13 11:00S 29°45' E 031°13'0 0.0
2017-Sep-13 10:30S 29°45' E 031°13'0 0.0
2017-Sep-13 10:00S 29°45' E 031°13'0 0.0
2017-Sep-13 09:30S 29°45' E 031°13'0 0.0
2017-Sep-13 09:00S 29°45' E 031°13'0 0.0
2017-Sep-13 08:30S 29°45' E 031°13'0 0.0
2017-Sep-13 07:57S 29°45' E 031°13'0 0.0
2017-Sep-13 07:27S 29°45' E 031°13'0 0.0
2017-Sep-13 07:00S 29°45' E 031°13'0 0.0
2017-Sep-13 06:30S 29°45' E 031°13'0 0.0
2017-Sep-13 06:00S 29°45' E 031°13'0 0.0
2017-Sep-13 05:30S 29°45' E 031°13'0 0.0
2017-Sep-13 05:00S 29°45' E 031°13'0 0.1
2017-Sep-13 04:30S 29°45' E 031°13'0 0.0
2017-Sep-13 04:00S 29°45' E 031°13'0 0.0
2017-Sep-13 03:30S 29°45' E 031°13'0 0.0
2017-Sep-13 03:00S 29°45' E 031°13'0 0.0
2017-Sep-13 02:30S 29°45' E 031°13'0 0.0
2017-Sep-13 02:00S 29°45' E 031°13'0 0.0
2017-Sep-13 01:24S 29°45' E 031°13'0 0.0
2017-Sep-13 01:00S 29°45' E 031°13'0 0.0
2017-Sep-13 00:30S 29°45' E 031°13'0 0.0
2017-Sep-13 00:00S 29°45' E 031°13'0 0.0
2017-Sep-12 23:30S 29°45' E 031°13'0 0.0
2017-Sep-12 23:00S 29°45' E 031°13'0 0.0
2017-Sep-12 22:30S 29°45' E 031°13'0 0.0
2017-Sep-12 22:00S 29°45' E 031°13'0 0.0
2017-Sep-12 21:30S 29°45' E 031°13'0 0.0
2017-Sep-12 21:00S 29°45' E 031°13'0 0.1
2017-Sep-12 20:30S 29°45' E 031°13'0 0.1
2017-Sep-12 20:00S 29°45' E 031°13'0 0.4
2017-Sep-12 19:31S 29°45' E 031°13'2 3.1
2017-Sep-12 19:00S 29°47' E 031°14'2 3.7
2017-Sep-12 18:31S 29°48' E 031°13'3 6.5
2017-Sep-12 18:01S 29°52' E 031°12'611.6
2017-Sep-12 17:31S 29°57' E 031°11'5 9.7
2017-Sep-12 17:01S 30°02' E 031°09'4 8.8
2017-Sep-12 16:30S 30°06' E 031°07'5 9.9
2017-Sep-12 16:00S 30°10' E 031°05'5 9.0
2017-Sep-12 15:31S 30°14' E 031°03'5 9.2
2017-Sep-12 15:00S 30°19' E 031°00'5 9.1
2017-Sep-12 14:30S 30°23' E 030°58'4 8.9
2017-Sep-12 14:00S 30°26' E 030°55'4 8.5
2017-Sep-12 13:30S 30°30' E 030°53'1 1.6
2017-Sep-12 13:00S 30°31' E 030°53'2 4.4
2017-Sep-12 12:31S 30°33' E 030°51'4 7.9
2017-Sep-12 12:01S 30°36' E 030°49'4 7.8
2017-Sep-12 11:30S 30°40' E 030°47'4 8.0
2017-Sep-12 11:01S 30°43' E 030°45'4 7.9
2017-Sep-12 10:30S 30°47' E 030°43'4 7.6
2017-Sep-12 10:01S 30°50' E 030°41'4 7.5
2017-Sep-12 09:30S 30°53' E 030°39'5 7.9
2017-Sep-12 08:55S 30°57' E 030°36'3 8.0
2017-Sep-12 08:31S 31°00' E 030°34'4 8.1
2017-Sep-12 08:01S 31°04' E 030°32'4 7.9
2017-Sep-12 07:29S 31°08' E 030°30'4 8.0
2017-Sep-12 06:59S 31°11' E 030°28'4 7.7
2017-Sep-12 06:30S 31°15' E 030°26'4 7.6
2017-Sep-12 05:57S 31°18' E 030°24'  

Dump ship's entire track history